Time;durP1;ratioP1;P1;durP2;ratioP2;P2;SDS_P1;SDS_P2;PMS_P1;PMS_P2;Temp;Humidity;BMP_temperature;BMP_pressure;BME280_temperature;BME280_humidity;BME280_pressure;Samples;Min_cycle;Max_cycle;Signal;HPM_P1;HPM_P2
2022/06/04 00:01:47;;;;;;;2.92;0.98;;;;;;;25.97;60.02;100776.09;5045832;28;20029;-71
2022/06/04 00:04:14;;;;;;;2.05;1.10;;;;;;;25.97;60.01;100768.09;5065078;28;20028;-72
2022/06/04 00:06:42;;;;;;;2.75;0.90;;;;;;;25.97;59.96;100773.44;5068874;28;20056;-71
2022/06/04 00:09:09;;;;;;;2.58;0.77;;;;;;;25.97;60.02;100768.09;5054221;28;20048;-72
2022/06/04 00:17:23;;;;;;;1.67;0.90;;;;;;;25.97;59.90;100760.09;4966869;28;20038;-72
2022/06/04 00:19:49;;;;;;;2.85;1.00;;;;;;;25.98;59.66;100756.38;4986974;28;20553;-72
2022/06/04 00:22:16;;;;;;;1.35;0.50;;;;;;;26.02;59.68;100762.00;4986142;28;20101;-73
2022/06/04 00:24:43;;;;;;;2.10;0.75;;;;;;;26.04;59.40;100759.91;4986470;28;20120;-73
2022/06/04 00:27:18;;;;;;;2.25;1.30;;;;;;;26.03;59.78;100748.44;4983159;28;20805;-72
2022/06/04 00:29:43;;;;;;;3.53;1.15;;;;;;;26.05;59.61;100753.53;4962504;28;20026;-73
2022/06/04 00:32:09;;;;;;;2.72;0.95;;;;;;;26.07;59.48;100754.09;4981123;28;20069;-72
2022/06/04 00:34:35;;;;;;;2.33;0.90;;;;;;;26.05;59.33;100746.34;4987563;28;20092;-72
2022/06/04 00:37:00;;;;;;;2.10;1.00;;;;;;;26.06;59.39;100745.28;4982459;28;20034;-72
2022/06/04 00:39:26;;;;;;;1.63;0.80;;;;;;;26.07;59.19;100741.56;4986771;28;20124;-72
2022/06/04 00:42:08;;;;;;;2.83;0.93;;;;;;;26.06;59.19;100741.81;4984169;28;20041;-72
2022/06/04 00:44:34;;;;;;;1.77;0.93;;;;;;;26.07;59.42;100746.09;4984621;28;20081;-72
2022/06/04 00:47:12;;;;;;;3.45;1.20;;;;;;;26.05;59.43;100738.31;4982716;28;20030;-72
2022/06/04 00:49:38;;;;;;;2.30;0.80;;;;;;;26.06;59.13;100734.59;5020547;28;20060;-72
2022/06/04 00:52:07;;;;;;;3.33;1.00;;;;;;;26.06;59.19;100731.94;5043151;28;20037;-71
2022/06/04 00:54:33;;;;;;;5.00;1.15;;;;;;;26.06;58.99;100731.94;5046175;28;20127;-71
2022/06/04 00:57:12;;;;;;;3.35;1.00;;;;;;;26.06;59.10;100731.13;5066683;28;20543;-71
2022/06/04 01:00:17;;;;;;;3.05;1.25;;;;;;;26.04;58.99;100734.03;5068334;28;20036;-72
2022/06/04 01:03:05;;;;;;;1.45;0.88;;;;;;;26.03;59.13;100734.28;5065654;28;20396;-72
2022/06/04 01:06:08;;;;;;;2.42;0.70;;;;;;;26.03;59.03;100729.75;5050519;28;20044;-72
2022/06/04 01:08:59;;;;;;;2.17;0.82;;;;;;;26.03;59.03;100727.06;5067287;28;20039;-71
2022/06/04 01:12:09;;;;;;;1.42;0.68;;;;;;;26.04;58.83;100728.69;5058240;28;20105;-71
2022/06/04 01:14:38;;;;;;;2.15;0.55;;;;;;;26.02;58.93;100720.09;5065348;28;20119;-71
2022/06/04 01:17:18;;;;;;;2.58;0.90;;;;;;;26.02;58.57;100727.31;5061055;28;20202;-71
2022/06/04 01:19:57;;;;;;;3.92;1.35;;;;;;;26.03;58.79;100727.06;5064799;28;20480;-72
2022/06/04 01:23:00;;;;;;;6.45;1.38;;;;;;;26.01;58.80;100737.19;5066906;28;20040;-71
2022/06/04 01:25:59;;;;;;;3.38;0.80;;;;;;;26.01;58.85;100736.38;5065286;28;20123;-72
2022/06/04 01:28:28;;;;;;;2.53;1.15;;;;;;;26.01;58.83;100734.50;5046217;28;20047;-72
2022/06/04 01:31:01;;;;;;;5.32;0.90;;;;;;;26.02;58.73;100738.81;5065363;28;20126;-72
2022/06/04 01:33:44;;;;;;;1.83;0.80;;;;;;;26.02;58.69;100729.97;5066210;28;20431;-71
2022/06/04 01:36:16;;;;;;;4.20;1.10;;;;;;;26.03;58.67;100736.94;5065771;28;20024;-72
2022/06/04 01:38:54;;;;;;;2.47;1.00;;;;;;;26.03;58.62;100732.41;5065071;28;20063;-71
2022/06/04 01:41:23;;;;;;;3.47;1.08;;;;;;;26.03;58.52;100727.06;5066412;28;20396;-71
2022/06/04 01:43:55;;;;;;;2.70;1.10;;;;;;;26.02;58.52;100729.97;5067877;28;20028;-72
2022/06/04 01:46:39;;;;;;;1.90;0.70;;;;;;;26.01;58.47;100726.50;5064525;28;20434;-72
2022/06/04 01:49:16;;;;;;;1.90;0.80;;;;;;;26.02;58.36;100729.97;5055061;28;21123;-71
2022/06/04 01:51:43;;;;;;;4.30;0.90;;;;;;;26.02;58.39;100725.44;5051255;28;20052;-72
2022/06/04 01:54:20;;;;;;;2.38;1.00;;;;;;;26.01;58.27;100718.50;5056392;28;20107;-72
2022/06/04 01:56:52;;;;;;;4.18;1.33;;;;;;;26.01;58.38;100721.16;5058845;28;20039;-72
2022/06/04 01:59:26;;;;;;;3.65;1.10;;;;;;;26.01;58.19;100721.16;5059843;28;20044;-72
2022/06/04 02:01:54;;;;;;;2.15;1.20;;;;;;;26.01;58.07;100710.47;5066330;28;20048;-72
2022/06/04 02:04:35;;;;;;;4.32;1.15;;;;;;;25.98;57.97;100702.97;5034348;28;20029;-72
2022/06/04 02:09:54;;;;;;;2.13;1.00;;;;;;;25.97;57.96;100690.69;5063323;28;20124;-72
2022/06/04 02:12:20;;;;;;;2.97;1.08;;;;;;;25.97;58.03;100696.03;5063950;28;20039;-71
2022/06/04 02:14:46;;;;;;;2.03;1.02;;;;;;;25.97;57.83;100700.56;5056399;28;20040;-72
2022/06/04 02:17:16;;;;;;;3.53;1.17;;;;;;;25.98;57.74;100694.16;5066723;28;20503;-72
2022/06/04 02:19:42;;;;;;;4.60;0.90;;;;;;;25.96;57.95;100680.25;5048663;28;20041;-72
2022/06/04 02:22:11;;;;;;;1.75;1.05;;;;;;;25.96;57.89;100686.41;5049967;28;20480;-72
2022/06/04 02:24:38;;;;;;;2.58;0.98;;;;;;;25.96;57.74;100689.06;5051381;28;20627;-72
2022/06/04 02:27:06;;;;;;;3.00;1.08;;;;;;;25.95;57.80;100687.44;5050255;28;20111;-72
2022/06/04 02:29:33;;;;;;;3.03;0.88;;;;;;;25.95;57.79;100690.13;5051062;28;20410;-72
2022/06/04 02:32:14;;;;;;;2.45;1.10;;;;;;;25.95;57.82;100687.44;5050012;28;20035;-71
2022/06/04 02:34:54;;;;;;;2.03;0.75;;;;;;;25.94;57.93;100688.50;5047671;28;20525;-72
2022/06/04 02:37:54;;;;;;;3.35;1.10;;;;;;;25.93;57.86;100683.41;5043803;28;20459;-72
2022/06/04 02:40:29;;;;;;;1.45;0.52;;;;;;;25.93;57.85;100673.53;4988731;28;20058;-72
2022/06/04 02:43:09;;;;;;;3.95;0.90;;;;;;;25.95;57.99;100682.09;4987162;28;20620;-71
2022/06/04 02:46:13;;;;;;;3.63;1.00;;;;;;;25.95;57.84;100679.44;4986349;28;20200;-72
2022/06/04 02:48:51;;;;;;;1.33;0.73;;;;;;;25.95;57.73;100690.13;4991118;28;20080;-72
2022/06/04 02:51:21;;;;;;;3.03;1.10;;;;;;;25.98;57.63;100686.16;5005746;28;20477;-73
2022/06/04 02:53:48;;;;;;;3.50;0.80;;;;;;;26.00;57.58;100684.84;4995589;28;20030;-73
2022/06/04 02:56:18;;;;;;;1.67;0.95;;;;;;;26.01;57.31;100686.44;5006493;28;20038;-71
2022/06/04 02:58:51;;;;;;;2.05;0.70;;;;;;;26.01;57.35;100686.44;5006322;28;20052;-72
2022/06/04 03:01:19;;;;;;;3.33;0.85;;;;;;;26.01;57.45;100686.44;5005829;28;20140;-72
2022/06/04 03:03:44;;;;;;;2.75;0.88;;;;;;;26.02;57.47;100697.94;5007803;28;20054;-71
2022/06/04 03:06:22;;;;;;;3.95;1.05;;;;;;;26.00;57.06;100695.50;5000353;28;20033;-71
2022/06/04 03:08:48;;;;;;;2.35;1.02;;;;;;;26.01;57.40;100697.13;5002906;28;20037;-72
2022/06/04 03:11:13;;;;;;;3.83;1.10;;;;;;;26.01;57.41;100699.81;5246658;22;20095;-72
2022/06/04 03:13:39;;;;;;;1.38;0.75;;;;;;;26.02;57.55;100697.94;5104584;28;20054;-72
2022/06/04 03:16:05;;;;;;;3.22;0.90;;;;;;;26.02;57.18;100698.75;5109278;28;20070;-72
2022/06/04 03:18:31;;;;;;;2.90;0.93;;;;;;;26.02;57.31;100697.94;5109039;28;20035;-72
2022/06/04 03:20:56;;;;;;;2.63;0.70;;;;;;;26.03;57.33;100704.91;5104437;28;20069;-72
2022/06/04 03:23:21;;;;;;;2.17;0.80;;;;;;;26.02;57.23;100714.78;5105675;28;20036;-71
2022/06/04 03:25:47;;;;;;;2.33;0.80;;;;;;;26.03;57.25;100710.25;5104013;28;20028;-71
2022/06/04 03:28:12;;;;;;;3.35;0.90;;;;;;;26.02;57.17;100713.97;5110455;28;20430;-72
2022/06/04 03:30:39;;;;;;;2.53;0.70;;;;;;;26.02;57.17;100724.63;5104515;28;20081;-71
2022/06/04 03:33:05;;;;;;;1.67;0.60;;;;;;;26.03;57.30;100721.72;5106703;28;20053;-71
2022/06/04 03:35:30;;;;;;;1.38;0.70;;;;;;;26.02;57.19;100714.78;5109641;28;20031;-71
2022/06/04 03:37:56;;;;;;;3.47;1.00;;;;;;;26.01;57.13;100713.16;5109187;28;20084;-72
2022/06/04 03:40:21;;;;;;;3.15;0.93;;;;;;;26.02;57.14;100711.28;5109487;28;20032;-72
2022/06/04 03:42:47;;;;;;;2.95;0.80;;;;;;;26.01;57.27;100707.81;5110390;28;20035;-71
2022/06/04 03:45:14;;;;;;;2.67;0.88;;;;;;;26.01;57.12;100710.47;5105541;28;20034;-71
2022/06/04 03:47:40;;;;;;;1.85;0.65;;;;;;;26.01;57.29;100713.16;5108529;28;20457;-72
2022/06/04 03:50:12;;;;;;;2.30;0.85;;;;;;;26.02;57.13;100716.63;5099800;28;20214;-71
2022/06/04 03:52:39;;;;;;;3.03;0.77;;;;;;;26.01;57.25;100712.34;5110145;28;20125;-72
2022/06/04 03:55:05;;;;;;;1.45;0.60;;;;;;;26.02;57.20;100719.31;5109364;28;20035;-71
2022/06/04 03:57:52;;;;;;;2.10;0.60;;;;;;;26.02;57.14;100720.09;5108323;28;20274;-72
2022/06/04 04:00:20;;;;;;;1.45;0.70;;;;;;;26.01;56.99;100723.03;5100170;28;20031;-71
2022/06/04 04:02:51;;;;;;;1.63;0.60;;;;;;;26.01;57.17;100729.16;5110069;28;20028;-71
2022/06/04 04:05:20;;;;;;;1.52;0.90;;;;;;;26.02;57.03;100730.78;5105471;28;20074;-71
2022/06/04 04:07:45;;;;;;;2.85;0.95;;;;;;;26.02;57.14;100740.66;5104822;28;20620;-71
2022/06/04 04:10:12;;;;;;;2.47;1.05;;;;;;;26.03;57.00;100731.59;5108648;28;20082;-71
2022/06/04 04:12:40;;;;;;;1.30;0.60;;;;;;;26.02;57.07;100740.66;5107456;28;20156;-72
2022/06/04 04:15:07;;;;;;;1.88;0.70;;;;;;;26.02;57.05;100733.47;5109757;28;20031;-71
2022/06/04 04:17:35;;;;;;;3.13;0.88;;;;;;;26.01;57.02;100734.50;5106281;28;20052;-71
2022/06/04 04:20:00;;;;;;;2.03;0.68;;;;;;;26.00;57.11;100727.53;5107511;28;20406;-71
2022/06/04 04:22:26;;;;;;;2.80;0.77;;;;;;;26.01;57.04;100723.03;5098590;28;20024;-71
2022/06/04 04:24:51;;;;;;;3.05;0.63;;;;;;;25.99;56.98;100723.28;5108283;28;20102;-71
2022/06/04 04:27:17;;;;;;;1.90;0.77;;;;;;;26.00;57.01;100716.06;5109288;28;20030;-71
2022/06/04 04:29:42;;;;;;;3.17;1.08;;;;;;;25.98;57.14;100702.16;5102425;28;20035;-71
2022/06/04 04:32:09;;;;;;;1.95;0.75;;;;;;;25.99;56.99;100709.13;5107479;28;20146;-71
2022/06/04 04:34:34;;;;;;;2.20;0.80;;;;;;;25.97;57.02;100706.69;5106426;28;20500;-71
2022/06/04 04:37:00;;;;;;;1.85;0.80;;;;;;;25.96;57.13;100705.06;5108065;28;20023;-71
2022/06/04 04:39:26;;;;;;;2.80;0.90;;;;;;;25.97;57.11;100714.72;5107206;28;20031;-72
2022/06/04 04:41:52;;;;;;;2.78;0.95;;;;;;;25.97;57.28;100714.72;5106170;28;20027;-71
2022/06/04 04:44:17;;;;;;;2.50;0.90;;;;;;;25.97;57.08;100725.38;5109204;28;20391;-71
2022/06/04 04:46:43;;;;;;;2.38;1.00;;;;;;;25.96;57.03;100731.78;5101506;28;20352;-71
2022/06/04 04:49:09;;;;;;;2.03;1.00;;;;;;;25.96;56.86;100725.63;5108804;28;20490;-72
2022/06/04 04:51:35;;;;;;;2.00;0.93;;;;;;;25.96;57.06;100723.75;5108614;28;20031;-71
2022/06/04 04:54:01;;;;;;;1.75;0.88;;;;;;;25.98;56.93;100732.34;5108301;28;20076;-72
2022/06/04 04:56:27;;;;;;;2.15;0.93;;;;;;;25.98;56.86;100729.69;5102546;28;20035;-72
2022/06/04 04:58:53;;;;;;;2.45;0.80;;;;;;;25.98;56.93;100729.69;5103275;28;20315;-71
2022/06/04 05:01:27;;;;;;;2.60;0.70;;;;;;;25.99;56.86;100717.94;5106555;28;20090;-72
2022/06/04 05:03:54;;;;;;;2.93;1.23;;;;;;;25.99;56.95;100709.94;5109224;28;20031;-70
2022/06/04 05:06:20;;;;;;;4.40;1.38;;;;;;;26.00;56.72;100716.06;5097356;28;20352;-70
2022/06/04 05:08:48;;;;;;;2.58;1.10;;;;;;;26.01;56.61;100723.84;5108540;28;20030;-71
2022/06/04 05:11:20;;;;;;;4.15;1.15;;;;;;;26.01;56.54;100717.69;5094941;28;20040;-71
2022/06/04 05:13:49;;;;;;;3.22;1.13;;;;;;;26.01;56.80;100723.84;5096854;28;20032;-71
2022/06/04 05:16:17;;;;;;;1.42;1.02;;;;;;;26.03;56.67;100720.91;5097567;28;20032;-71
2022/06/04 05:18:42;;;;;;;3.42;1.35;;;;;;;26.03;56.45;100728.94;5094296;28;20038;-71
2022/06/04 05:21:18;;;;;;;3.80;1.50;;;;;;;26.03;56.56;100727.06;5108256;28;20390;-72
2022/06/04 05:23:43;;;;;;;3.67;1.88;;;;;;;26.03;56.55;100726.25;5109088;28;20142;-71
2022/06/04 05:26:09;;;;;;;3.78;1.13;;;;;;;26.03;56.45;100727.06;5095763;28;20169;-72
2022/06/04 05:28:34;;;;;;;2.75;1.35;;;;;;;26.04;56.38;100728.69;5107633;28;20031;-71
2022/06/04 05:31:00;;;;;;;3.53;1.40;;;;;;;26.04;56.35;100720.69;5102915;28;20506;-71
2022/06/04 05:33:26;;;;;;;3.60;1.10;;;;;;;26.04;56.30;100734.03;5107534;28;20042;-71
2022/06/04 05:35:51;;;;;;;2.47;1.23;;;;;;;26.05;56.25;100724.16;5108386;28;20542;-72
2022/06/04 05:38:17;;;;;;;2.72;1.55;;;;;;;26.06;56.20;100731.13;5108509;28;20059;-72
2022/06/04 05:40:42;;;;;;;2.97;1.30;;;;;;;26.04;56.26;100728.69;5108902;28;20070;-70
2022/06/04 05:43:07;;;;;;;3.42;1.27;;;;;;;26.05;56.49;100735.66;5111805;28;20077;-71
2022/06/04 05:45:33;;;;;;;3.35;1.27;;;;;;;26.06;56.22;100741.81;5112176;28;20091;-71
2022/06/04 05:47:58;;;;;;;4.88;1.15;;;;;;;26.05;56.30;100746.34;5111169;28;20023;-71
2022/06/04 05:50:24;;;;;;;3.65;1.52;;;;;;;26.06;56.36;100742.59;5112170;28;20028;-71
2022/06/04 05:52:49;;;;;;;3.65;1.38;;;;;;;26.05;56.45;100751.66;5111489;28;20032;-71
2022/06/04 05:55:14;;;;;;;3.65;1.42;;;;;;;26.05;56.37;100751.66;5110697;28;20049;-72
2022/06/04 05:57:40;;;;;;;2.33;1.30;;;;;;;26.05;56.41;100743.66;5109557;28;20031;-72
2022/06/04 06:00:08;;;;;;;2.47;1.20;;;;;;;26.05;56.34;100732.97;5110122;28;20039;-71
2022/06/04 06:02:37;;;;;;;6.40;1.20;;;;;;;26.06;56.44;100739.13;5104685;28;20028;-71
2022/06/04 06:05:04;;;;;;;3.13;1.35;;;;;;;26.06;56.64;100739.94;5112093;28;20023;-72
2022/06/04 06:07:30;;;;;;;2.67;1.38;;;;;;;26.07;56.55;100738.88;5112094;28;20027;-71
2022/06/04 06:09:56;;;;;;;2.90;1.23;;;;;;;26.07;56.36;100740.75;5110976;28;20526;-71
2022/06/04 06:12:21;;;;;;;2.55;1.05;;;;;;;26.08;56.39;100743.19;5108615;28;20082;-70
2022/06/04 06:14:46;;;;;;;1.67;0.80;;;;;;;26.09;56.48;100746.66;5107311;28;20031;-72
2022/06/04 06:17:12;;;;;;;3.42;1.48;;;;;;;26.09;56.71;100746.66;5107092;28;20407;-72
2022/06/04 06:19:37;;;;;;;4.05;1.35;;;;;;;26.06;56.59;100753.28;5105640;28;20032;-72
2022/06/04 06:22:03;;;;;;;3.85;1.15;;;;;;;26.07;56.73;100749.56;5102296;28;20808;-71
2022/06/04 06:24:30;;;;;;;3.70;0.85;;;;;;;26.07;56.72;100754.91;5109903;28;20036;-71
2022/06/04 06:26:58;;;;;;;2.47;0.98;;;;;;;26.07;56.69;100757.59;5107261;28;20027;-72
2022/06/04 06:29:26;;;;;;;4.00;0.95;;;;;;;26.06;56.49;100760.50;5108728;28;20059;-71
2022/06/04 06:31:53;;;;;;;1.42;0.80;;;;;;;26.05;56.71;100762.34;5108224;28;20130;-71
2022/06/04 06:34:20;;;;;;;3.22;0.82;;;;;;;26.05;56.50;100751.66;5108010;28;20569;-72
2022/06/04 06:36:46;;;;;;;6.07;1.27;;;;;;;26.05;56.66;100757.00;5108403;28;20019;-72
2022/06/04 06:39:12;;;;;;;2.45;1.08;;;;;;;26.05;56.73;100750.84;5108381;28;20047;-71
2022/06/04 06:41:38;;;;;;;3.47;1.10;;;;;;;26.03;56.90;100764.44;5107052;28;20054;-70
2022/06/04 06:44:04;;;;;;;3.45;1.20;;;;;;;26.03;56.95;100759.09;5110268;28;20079;-71
2022/06/04 06:46:33;;;;;;;5.97;1.60;;;;;;;26.03;56.74;100774.31;5101887;28;20057;-73
2022/06/04 06:49:17;;;;;;;2.47;1.20;;;;;;;26.00;56.76;100764.94;5110155;28;20097;-72
2022/06/04 06:51:49;;;;;;;2.55;0.80;;;;;;;26.02;56.87;100770.03;5104553;28;20114;-71
2022/06/04 06:54:16;;;;;;;3.70;1.00;;;;;;;26.00;56.84;100762.25;5098499;28;20067;-71
2022/06/04 06:56:43;;;;;;;8.10;1.20;;;;;;;26.01;56.80;100769.22;5108541;28;20071;-72
2022/06/04 06:59:09;;;;;;;3.13;0.90;;;;;;;26.01;57.09;100765.72;5109178;28;20038;-70
2022/06/04 07:01:36;;;;;;;5.85;1.58;;;;;;;26.00;57.10;100767.59;5103203;28;20027;-72
2022/06/04 07:04:02;;;;;;;3.00;0.98;;;;;;;25.99;57.04;100768.66;5111162;28;20027;-71
2022/06/04 07:06:33;;;;;;;6.78;1.45;;;;;;;25.98;57.20;100777.72;5110065;28;20390;-71
2022/06/04 07:09:00;;;;;;;1.83;0.90;;;;;;;25.99;57.07;100774.00;5110766;28;20440;-71
2022/06/04 07:11:25;;;;;;;2.13;0.95;;;;;;;25.99;57.12;100768.66;5107455;28;20055;-72
2022/06/04 07:13:51;;;;;;;4.00;1.13;;;;;;;26.00;57.19;100775.59;5103195;28;20044;-72
2022/06/04 07:16:17;;;;;;;2.70;0.90;;;;;;;26.00;57.08;100783.59;5107229;28;20023;-72
2022/06/04 07:18:42;;;;;;;4.05;0.90;;;;;;;25.99;56.99;100779.34;5098785;28;20031;-72
2022/06/04 07:21:08;;;;;;;7.50;1.38;;;;;;;26.02;57.20;100778.84;5098036;28;20023;-72
2022/06/04 07:23:35;;;;;;;4.32;1.67;;;;;;;26.05;57.46;100777.56;5105658;28;20362;-71
2022/06/04 07:26:04;;;;;;;5.78;2.45;;;;;;;26.07;57.78;100778.94;5103196;28;20106;-73
2022/06/04 07:28:30;;;;;;;6.00;1.90;;;;;;;26.09;58.11;100774.16;5109263;28;20510;-72
2022/06/04 07:30:56;;;;;;;10.73;2.72;;;;;;;26.12;58.20;100779.03;5103840;28;20062;-73
2022/06/04 07:33:22;;;;;;;4.82;1.70;;;;;;;26.11;58.56;100780.09;5108818;28;20506;-72
2022/06/04 07:35:49;;;;;;;6.47;1.67;;;;;;;26.17;58.82;100778.31;5108871;28;20552;-72
2022/06/04 07:38:15;;;;;;;4.55;2.65;;;;;;;26.23;59.91;100784.56;5109592;28;20031;-71
2022/06/04 07:40:41;;;;;;;6.80;1.95;;;;;;;26.22;59.48;100782.94;5102315;28;20458;-73
2022/06/04 07:43:07;;;;;;;5.40;1.65;;;;;;;26.20;59.00;100785.84;5104466;28;20467;-71
2022/06/04 07:45:34;;;;;;;3.28;1.25;;;;;;;26.17;58.47;100790.88;5099276;28;20028;-72
2022/06/04 07:48:00;;;;;;;2.63;0.95;;;;;;;26.15;58.39;100783.09;5106660;28;20032;-72
2022/06/04 07:50:26;;;;;;;6.40;2.00;;;;;;;26.16;58.43;100783.91;5107556;28;20119;-73
2022/06/04 07:52:51;;;;;;;2.70;0.90;;;;;;;26.16;58.29;100786.56;5103916;28;20110;-73
2022/06/04 07:55:17;;;;;;;3.92;1.27;;;;;;;26.16;58.21;100783.91;5100648;28;20031;-74
2022/06/04 07:57:42;;;;;;;4.50;1.02;;;;;;;26.16;57.97;100775.88;5108507;28;20567;-72
2022/06/04 08:00:09;;;;;;;3.80;1.20;;;;;;;26.16;57.91;100774.03;5101676;28;20031;-74
2022/06/04 08:02:35;;;;;;;4.22;1.10;;;;;;;26.16;57.85;100768.69;5104580;28;20119;-73
2022/06/04 08:05:00;;;;;;;6.85;1.00;;;;;;;26.16;57.66;100778.56;5106195;28;20107;-73
2022/06/04 08:07:26;;;;;;;3.65;1.35;;;;;;;26.17;57.79;100769.50;5096329;28;20027;-71
2022/06/04 08:09:53;;;;;;;8.48;1.65;;;;;;;26.18;57.61;100765.78;5092375;28;20058;-73
2022/06/04 08:12:18;;;;;;;5.18;1.48;;;;;;;26.19;57.40;100767.41;5107961;28;20117;-73
2022/06/04 08:14:46;;;;;;;5.78;1.63;;;;;;;26.19;57.55;100772.75;5091036;28;20483;-72
2022/06/04 08:17:12;;;;;;;5.28;1.73;;;;;;;26.19;57.59;100762.06;5094692;28;20048;-73
2022/06/04 08:19:39;;;;;;;4.05;1.27;;;;;;;26.21;57.43;100773.31;5100133;28;20488;-74
2022/06/04 08:22:06;;;;;;;2.20;1.10;;;;;;;26.21;57.54;100776.78;5102547;28;20191;-71
2022/06/04 08:24:31;;;;;;;4.35;1.35;;;;;;;26.22;57.45;100761.59;5103037;28;20522;-75
2022/06/04 08:26:58;;;;;;;7.03;1.83;;;;;;;26.24;57.38;100772.84;5106726;28;20032;-74
2022/06/04 08:29:26;;;;;;;4.00;1.02;;;;;;;26.24;57.29;100767.50;5102611;28;20043;-73
2022/06/04 08:31:52;;;;;;;3.88;1.30;;;;;;;26.25;57.09;100769.13;5095287;28;20028;-71
2022/06/04 08:34:17;;;;;;;4.05;1.67;;;;;;;26.25;56.62;100769.13;5096606;28;20028;-71
2022/06/04 08:36:43;;;;;;;7.32;1.58;;;;;;;26.21;56.37;100767.97;5099573;28;20116;-71
2022/06/04 08:39:09;;;;;;;5.38;1.55;;;;;;;26.19;56.09;100772.75;5095230;28;20035;-72
2022/06/04 08:41:43;;;;;;;7.38;2.38;;;;;;;26.19;55.97;100764.72;5109047;28;20031;-73
2022/06/04 08:44:15;;;;;;;3.92;1.88;;;;;;;26.21;56.19;100770.63;5103849;28;20168;-72
2022/06/04 08:47:18;;;;;;;9.70;2.17;;;;;;;26.18;55.99;100763.91;5104048;28;20036;-73
2022/06/04 08:49:47;;;;;;;5.85;2.20;;;;;;;26.19;57.19;100759.38;5099880;28;20490;-71
2022/06/04 08:52:16;;;;;;;8.38;2.75;;;;;;;26.21;58.08;100765.31;5095991;28;20035;-71
2022/06/04 08:57:33;;;;;;;8.95;2.33;;;;;;;26.22;57.52;100761.59;5090906;28;20094;-71
2022/06/04 08:59:59;;;;;;;6.57;1.85;;;;;;;26.22;57.38;100753.56;5088655;28;20024;-73
2022/06/04 09:02:40;;;;;;;5.88;1.50;;;;;;;26.22;56.87;100761.59;5097474;28;20061;-72
2022/06/04 09:05:35;;;;;;;5.18;1.35;;;;;;;26.19;56.31;100759.38;5092718;28;20149;-74
2022/06/04 09:08:10;;;;;;;7.45;2.45;;;;;;;26.20;55.89;100761.81;5083349;28;20031;-73
2022/06/04 09:10:50;;;;;;;10.85;2.25;;;;;;;26.18;56.04;100758.56;5093599;28;20032;-73
2022/06/04 09:13:31;;;;;;;8.43;1.98;;;;;;;26.22;56.03;100762.38;5081133;28;20536;-71
2022/06/04 09:16:02;;;;;;;4.38;1.48;;;;;;;26.22;55.89;100762.38;5098410;28;20034;-72
2022/06/04 09:18:33;;;;;;;8.02;1.83;;;;;;;26.23;55.72;100761.34;5104784;28;20066;-73
2022/06/04 09:21:01;;;;;;;6.72;1.63;;;;;;;26.25;55.62;100769.13;5106161;28;20027;-71
2022/06/04 09:23:35;;;;;;;9.48;1.70;;;;;;;26.21;54.93;100760.78;5093837;28;20123;-71
2022/06/04 09:26:13;;;;;;;5.68;1.38;;;;;;;26.21;54.36;100752.75;5104341;28;20046;-71
2022/06/04 09:28:42;;;;;;;4.82;1.33;;;;;;;26.22;54.21;100761.59;5087935;28;20036;-72
2022/06/04 09:31:42;;;;;;;3.10;1.10;;;;;;;26.23;53.95;100760.53;5102670;28;20087;-72
2022/06/04 09:34:14;;;;;;;4.22;1.20;;;;;;;26.23;54.07;100772.03;5100343;28;20077;-72
2022/06/04 09:36:42;;;;;;;5.47;1.48;;;;;;;26.24;53.64;100762.97;5103133;28;20424;-71
2022/06/04 09:39:31;;;;;;;6.90;1.70;;;;;;;26.21;53.60;100771.44;5105009;28;20032;-71
2022/06/04 09:41:59;;;;;;;6.75;1.42;;;;;;;26.22;53.55;100766.91;5094963;28;20035;-71
2022/06/04 09:44:27;;;;;;;4.78;1.13;;;;;;;26.22;53.54;100761.59;5090060;28;20286;-72
2022/06/04 09:47:05;;;;;;;4.72;1.58;;;;;;;26.19;53.22;100765.53;5103401;28;20027;-73
2022/06/04 09:49:52;;;;;;;5.53;1.50;;;;;;;26.19;53.28;100770.88;5104780;28;20498;-72
2022/06/04 09:52:35;;;;;;;3.90;1.67;;;;;;;26.21;53.32;100778.66;5102536;28;20451;-71
2022/06/04 09:55:37;;;;;;;6.35;1.63;;;;;;;26.23;53.57;100779.22;5100249;28;20434;-73
2022/06/04 09:58:06;;;;;;;8.55;1.85;;;;;;;26.25;53.39;100783.28;5019032;28;20089;-71
2022/06/04 10:00:36;;;;;;;9.38;1.40;;;;;;;26.24;53.54;100776.31;5019539;28;20041;-71
2022/06/04 10:03:10;;;;;;;6.65;1.90;;;;;;;26.25;53.46;100780.59;5023620;28;20041;-72
2022/06/04 10:05:36;;;;;;;4.50;1.90;;;;;;;26.26;53.41;100766.19;5025736;28;20096;-72
2022/06/04 10:08:14;;;;;;;3.47;1.33;;;;;;;26.27;53.11;100777.69;5016218;28;20128;-70
2022/06/04 10:10:43;;;;;;;5.00;1.13;;;;;;;26.30;52.92;100769.22;5021234;28;20453;-70
2022/06/04 10:16:11;;;;;;;6.65;1.80;;;;;;;26.29;53.38;100767.59;5019814;28;20053;-71
2022/06/04 10:18:37;;;;;;;6.90;2.38;;;;;;;26.31;53.34;100768.19;5015107;28;20120;-72
2022/06/04 10:21:07;;;;;;;7.15;1.88;;;;;;;26.32;53.40;100772.47;5013160;28;20597;-72
2022/06/04 10:23:50;;;;;;;5.45;2.03;;;;;;;26.31;53.29;100771.66;5000834;28;20456;-70
2022/06/04 10:26:31;;;;;;;6.28;1.83;;;;;;;26.33;53.43;100771.44;5017990;28;20265;-71
2022/06/04 10:29:17;;;;;;;4.00;1.73;;;;;;;26.33;53.50;100766.91;5018703;28;20080;-71
2022/06/04 10:31:42;;;;;;;;;;;;;;;26.27;53.73;100780.38;5044460;28;20044;-73
2022/06/04 10:34:45;;;;;;;5.53;1.83;;;;;;;26.29;54.01;100767.59;5096819;28;20040;-72
2022/06/04 10:37:29;;;;;;;4.60;1.98;;;;;;;26.33;54.14;100774.09;5102976;28;20931;-73
2022/06/04 10:40:32;;;;;;;7.05;2.28;;;;;;;26.35;54.19;100774.66;5098859;28;20085;-73
2022/06/04 10:43:42;;;;;;;8.52;1.80;;;;;;;26.37;54.33;100764.56;5099496;28;20035;-73
2022/06/04 10:46:18;;;;;;;8.43;2.38;;;;;;;26.38;54.73;100772.31;5073122;28;20441;-70
2022/06/04 10:49:01;;;;;;;7.88;2.53;;;;;;;26.40;54.74;100772.09;5102182;28;20084;-73
2022/06/04 10:51:48;;;;;;;5.97;2.65;;;;;;;26.40;54.78;100772.09;5096914;28;20398;-72
2022/06/04 10:54:28;;;;;;;5.43;2.25;;;;;;;26.42;55.28;100778.00;5100425;28;20036;-72
2022/06/04 10:57:22;;;;;;;6.68;2.55;;;;;;;26.43;55.41;100763.59;5108690;28;20504;-71
2022/06/04 11:00:22;;;;;;;7.38;2.25;;;;;;;26.44;55.47;100755.34;5099790;28;20511;-73
2022/06/04 11:03:05;;;;;;;7.63;3.13;;;;;;;26.46;55.67;100757.78;5098212;28;20047;-73
2022/06/04 11:05:38;;;;;;;7.10;3.13;;;;;;;26.49;55.66;100749.25;5094628;28;20028;-70
2022/06/04 11:08:37;;;;;;;5.40;2.85;;;;;;;26.48;55.94;100755.63;5100282;28;20084;-73
2022/06/04 11:11:14;;;;;;;6.63;2.88;;;;;;;26.49;55.75;100751.91;5102705;28;20036;-72
2022/06/04 11:13:50;;;;;;;4.65;1.95;;;;;;;26.49;56.03;100751.91;5106347;28;20133;-71
2022/06/04 11:16:21;;;;;;;6.03;2.70;;;;;;;26.50;56.16;100744.72;5103955;28;20507;-72
2022/06/04 11:18:56;;;;;;;4.80;2.38;;;;;;;26.51;56.06;100754.34;5107510;28;20020;-73
2022/06/04 11:21:21;;;;;;;;;;;;;;;26.43;56.30;100760.91;5111497;28;20483;-72
2022/06/04 11:23:47;;;;;;;5.90;3.03;;;;;;;26.46;55.86;100759.63;5101633;28;19931;-72
2022/06/04 11:26:22;;;;;;;8.35;3.20;;;;;;;26.51;55.74;100754.34;5101934;28;20036;-72
2022/06/04 11:28:48;;;;;;;;;;;;;;;26.47;56.03;100756.69;5103944;28;20424;-71
2022/06/04 11:31:19;;;;;;;4.97;2.40;;;;;;;26.50;55.79;100740.19;5103052;28;19920;-72
2022/06/04 11:33:57;;;;;;;6.05;2.40;;;;;;;26.54;55.96;100738.63;5107029;28;20118;-73
2022/06/04 11:36:50;;;;;;;9.15;3.00;;;;;;;26.58;55.61;100739.78;5104784;28;20027;-72
2022/06/04 11:39:40;;;;;;;10.15;3.22;;;;;;;26.59;55.49;100740.59;5102205;28;20040;-71
2022/06/04 11:42:29;;;;;;;10.90;3.03;;;;;;;26.58;54.65;100726.41;5096803;28;20035;-70
2022/06/04 11:45:24;;;;;;;6.07;2.88;;;;;;;26.61;54.46;100723.25;5102392;27;20114;-71
2022/06/04 11:48:11;;;;;;;5.82;2.58;;;;;;;26.61;54.99;100728.59;5106356;28;20320;-72
2022/06/04 11:50:48;;;;;;;5.22;2.60;;;;;;;26.62;55.26;100721.38;5105093;28;20138;-72
2022/06/04 11:53:37;;;;;;;4.65;2.63;;;;;;;26.65;55.28;100713.69;5099616;28;20032;-72
2022/06/04 11:56:13;;;;;;;8.40;2.55;;;;;;;26.67;55.32;100714.25;5100469;27;20064;-71
2022/06/04 11:58:39;;;;;;;5.20;2.20;;;;;;;26.70;55.59;100716.44;5090153;28;20501;-72
2022/06/04 12:01:11;;;;;;;6.40;1.83;;;;;;;26.75;55.48;100718.38;5100626;28;20070;-70
2022/06/04 12:03:41;;;;;;;7.18;2.35;;;;;;;26.76;55.27;100712.81;5099612;28;20020;-72